Time;durP1;ratioP1;P1;durP2;ratioP2;P2;SDS_P1;SDS_P2;PMS_P1;PMS_P2;Temp;Humidity;BMP_temperature;BMP_pressure;BME280_temperature;BME280_humidity;BME280_pressure;Samples;Min_cycle;Max_cycle;Signal;HPM_P1;HPM_P2
2023/08/20 00:05:04;;;;;;;2.33;2.08;;;;;;;;;;10342837;28;20061;-83
2023/08/20 00:10:09;;;;;;;2.47;2.20;;;;;;;;;;10359491;28;20065;-83
2023/08/20 00:15:12;;;;;;;3.35;2.08;;;;;;;;;;10359365;28;20116;-83
2023/08/20 00:20:18;;;;;;;2.72;1.95;;;;;;;;;;10356772;28;20050;-83
2023/08/20 00:25:21;;;;;;;3.15;2.00;;;;;;;;;;10341427;28;20136;-84
2023/08/20 00:30:25;;;;;;;3.38;1.95;;;;;;;;;;10359696;28;20121;-84
2023/08/20 00:35:29;;;;;;;2.92;1.92;;;;;;;;;;10357739;28;20070;-84
2023/08/20 00:40:33;;;;;;;1.90;1.80;;;;;;;;;;10340094;28;20069;-83
2023/08/20 00:45:36;;;;;;;2.20;2.00;;;;;;;;;;10335972;28;20165;-84
2023/08/20 00:50:42;;;;;;;3.45;1.70;;;;;;;;;;10347068;28;20050;-84
2023/08/20 00:55:45;;;;;;;4.20;2.13;;;;;;;;;;10339619;28;20426;-84
2023/08/20 01:00:49;;;;;;;2.80;1.80;;;;;;;;;;10338910;28;20396;-83
2023/08/20 01:06:06;;;;;;;4.50;1.83;;;;;;;;;;10348743;28;20085;-84
2023/08/20 01:11:17;;;;;;;2.38;1.92;;;;;;;;;;10356018;28;20104;-83
2023/08/20 01:16:21;;;;;;;3.45;2.03;;;;;;;;;;10356463;28;20042;-83
2023/08/20 01:21:38;;;;;;;3.88;2.08;;;;;;;;;;10356085;28;20133;-84
2023/08/20 01:26:57;;;;;;;3.17;1.75;;;;;;;;;;10338065;28;20112;-83
2023/08/20 01:32:03;;;;;;;2.53;2.00;;;;;;;;;;10354659;28;20057;-83
2023/08/20 01:37:07;;;;;;;2.90;1.92;;;;;;;;;;10338643;28;20057;-83
2023/08/20 01:42:11;;;;;;;6.15;2.00;;;;;;;;;;10332753;28;20692;-82
2023/08/20 01:47:16;;;;;;;3.78;1.98;;;;;;;;;;10337654;28;20580;-83
2023/08/20 01:52:20;;;;;;;2.47;1.63;;;;;;;;;;10355160;28;20049;-83
2023/08/20 01:57:23;;;;;;;3.53;2.00;;;;;;;;;;10346991;28;20564;-83
2023/08/20 02:02:28;;;;;;;3.05;2.00;;;;;;;;;;10335363;28;20076;-83
2023/08/20 02:07:31;;;;;;;3.25;1.95;;;;;;;;;;10347132;28;20146;-83
2023/08/20 02:12:35;;;;;;;2.65;2.00;;;;;;;;;;10336712;28;20097;-84
2023/08/20 02:17:40;;;;;;;3.30;2.08;;;;;;;;;;10336648;28;20045;-83
2023/08/20 02:22:44;;;;;;;4.20;2.10;;;;;;;;;;10336625;28;20535;-84
2023/08/20 02:27:47;;;;;;;4.07;1.95;;;;;;;;;;10337077;28;20048;-83
2023/08/20 02:32:52;;;;;;;2.38;1.83;;;;;;;;;;10328420;28;20129;-83
2023/08/20 02:37:55;;;;;;;2.45;1.75;;;;;;;;;;10332791;28;20130;-84
2023/08/20 02:42:59;;;;;;;2.70;1.92;;;;;;;;;;10335799;28;20137;-83
2023/08/20 02:48:04;;;;;;;2.75;1.83;;;;;;;;;;10335402;28;20403;-83
2023/08/20 02:53:08;;;;;;;3.80;2.20;;;;;;;;;;10334164;28;20131;-83
2023/08/20 02:58:11;;;;;;;2.00;1.73;;;;;;;;;;10334702;28;20042;-83
2023/08/20 03:03:16;;;;;;;4.50;1.98;;;;;;;;;;10350066;28;20046;-83
2023/08/20 03:08:20;;;;;;;2.03;1.65;;;;;;;;;;10330092;28;20126;-83
2023/08/20 03:13:23;;;;;;;3.67;1.85;;;;;;;;;;10350435;28;20080;-83
2023/08/20 03:18:28;;;;;;;2.47;2.08;;;;;;;;;;10359200;28;20076;-83
2023/08/20 03:23:31;;;;;;;2.67;2.13;;;;;;;;;;10349965;28;20054;-83
2023/08/20 03:28:35;;;;;;;3.42;1.80;;;;;;;;;;10342732;28;20067;-83
2023/08/20 03:33:40;;;;;;;3.40;1.67;;;;;;;;;;10341476;28;20056;-83
2023/08/20 03:38:43;;;;;;;2.60;1.95;;;;;;;;;;10344566;28;20523;-84
2023/08/20 03:43:46;;;;;;;4.40;1.52;;;;;;;;;;10341280;28;20568;-84
2023/08/20 03:48:51;;;;;;;4.47;1.95;;;;;;;;;;10340916;28;20115;-83
2023/08/20 03:53:55;;;;;;;2.13;1.67;;;;;;;;;;10341580;28;20088;-84
2023/08/20 03:58:58;;;;;;;2.38;1.48;;;;;;;;;;10332850;28;20045;-83
2023/08/20 04:04:03;;;;;;;1.58;1.45;;;;;;;;;;10335658;28;20047;-84
2023/08/20 04:09:08;;;;;;;2.37;1.80;;;;;;;;;;10341747;28;20041;-84
2023/08/20 04:14:12;;;;;;;4.83;1.70;;;;;;;;;;10342108;28;20136;-83
2023/08/20 04:19:17;;;;;;;4.90;1.98;;;;;;;;;;10351572;28;20474;-84
2023/08/20 04:24:20;;;;;;;2.30;1.77;;;;;;;;;;10340852;28;20455;-83
2023/08/20 04:29:24;;;;;;;2.45;1.70;;;;;;;;;;10341108;28;20030;-84
2023/08/20 04:34:30;;;;;;;3.40;2.13;;;;;;;;;;10336374;28;20141;-84
2023/08/20 04:39:33;;;;;;;1.55;1.45;;;;;;;;;;10341029;28;20120;-83
2023/08/20 04:44:37;;;;;;;2.55;1.85;;;;;;;;;;10358464;28;20507;-84
2023/08/20 04:49:42;;;;;;;2.88;1.67;;;;;;;;;;10340628;28;20062;-84
2023/08/20 04:54:45;;;;;;;1.50;1.40;;;;;;;;;;10357840;28;20692;-84
2023/08/20 04:59:49;;;;;;;2.75;1.70;;;;;;;;;;10340577;28;20038;-84
2023/08/20 05:05:11;;;;;;;2.55;1.50;;;;;;;;;;10324565;28;20133;-83
2023/08/20 05:10:15;;;;;;;1.60;1.45;;;;;;;;;;10339094;28;20049;-84
2023/08/20 05:15:18;;;;;;;3.38;1.83;;;;;;;;;;10340339;28;20104;-84
2023/08/20 05:20:23;;;;;;;1.77;1.48;;;;;;;;;;10339466;28;20053;-84
2023/08/20 05:25:26;;;;;;;3.65;1.73;;;;;;;;;;10350574;28;20846;-83
2023/08/20 05:30:30;;;;;;;2.75;1.80;;;;;;;;;;10339514;28;20061;-83
2023/08/20 05:35:35;;;;;;;3.08;1.95;;;;;;;;;;10339272;28;20054;-84
2023/08/20 05:40:39;;;;;;;2.25;1.58;;;;;;;;;;10338702;28;20048;-84
2023/08/20 05:45:43;;;;;;;1.65;1.40;;;;;;;;;;10338257;28;20120;-83
2023/08/20 05:50:53;;;;;;;2.30;1.60;;;;;;;;;;10354684;28;20041;-84
2023/08/20 05:55:57;;;;;;;3.58;1.90;;;;;;;;;;10355346;28;20104;-84
2023/08/20 06:01:02;;;;;;;3.63;1.60;;;;;;;;;;10338253;28;20034;-84
2023/08/20 06:06:07;;;;;;;3.28;1.80;;;;;;;;;;10332132;28;20407;-84
2023/08/20 06:11:11;;;;;;;2.55;1.75;;;;;;;;;;10347345;28;20121;-84
2023/08/20 06:16:14;;;;;;;1.63;1.42;;;;;;;;;;10354109;28;20056;-84
2023/08/20 06:21:19;;;;;;;2.58;1.77;;;;;;;;;;10355133;28;20125;-83
2023/08/20 06:26:22;;;;;;;2.67;1.70;;;;;;;;;;10337827;28;20049;-84
2023/08/20 06:31:26;;;;;;;3.47;2.05;;;;;;;;;;10336383;28;20149;-84
2023/08/20 06:36:30;;;;;;;5.80;2.63;;;;;;;;;;10347420;28;20418;-84
2023/08/20 06:41:34;;;;;;;4.45;3.03;;;;;;;;;;10353807;28;20716;-84
2023/08/20 06:46:38;;;;;;;6.50;2.95;;;;;;;;;;10355042;28;20034;-84
2023/08/20 06:51:42;;;;;;;6.80;3.38;;;;;;;;;;10343952;28;20132;-84
2023/08/20 06:56:46;;;;;;;10.85;6.25;;;;;;;;;;10361245;28;20048;-84
2023/08/20 07:01:50;;;;;;;8.57;4.57;;;;;;;;;;10374204;23;20066;-84
2023/08/20 07:06:55;;;;;;;6.47;3.97;;;;;;;;;;10359502;28;20049;-84
2023/08/20 07:11:58;;;;;;;7.10;3.93;;;;;;;;;;10394738;28;20071;-83
2023/08/20 07:17:02;;;;;;;5.45;3.10;;;;;;;;;;10369366;28;20038;-84
2023/08/20 07:22:07;;;;;;;6.65;4.32;;;;;;;;;;10374497;28;20516;-83
2023/08/20 07:27:12;;;;;;;4.97;3.67;;;;;;;;;;10367783;28;20125;-83
2023/08/20 07:32:15;;;;;;;7.18;4.05;;;;;;;;;;10360348;28;20105;-84
2023/08/20 07:37:20;;;;;;;8.35;4.90;;;;;;;;;;10361497;28;20046;-83
2023/08/20 07:42:24;;;;;;;9.10;6.00;;;;;;;;;;10351330;28;20061;-83
2023/08/20 07:47:28;;;;;;;5.78;4.50;;;;;;;;;;10386119;28;20573;-83
2023/08/20 07:52:33;;;;;;;5.35;4.03;;;;;;;;;;10383072;28;20058;-83
2023/08/20 07:57:37;;;;;;;4.70;3.50;;;;;;;;;;10366950;28;20065;-83
2023/08/20 08:02:40;;;;;;;5.30;4.25;;;;;;;;;;10400419;28;20052;-83
2023/08/20 08:07:45;;;;;;;3.92;3.50;;;;;;;;;;10366884;28;20068;-83
2023/08/20 08:12:48;;;;;;;3.07;2.77;;;;;;;;;;10375202;28;20045;-83
2023/08/20 08:17:52;;;;;;;2.90;2.60;;;;;;;;;;10362802;28;20042;-84
2023/08/20 08:22:57;;;;;;;4.30;2.85;;;;;;;;;;10374956;28;20045;-83
2023/08/20 08:28:00;;;;;;;6.68;4.05;;;;;;;;;;10365523;28;20429;-83
2023/08/20 08:33:04;;;;;;;3.58;3.03;;;;;;;;;;10364573;28;20557;-84
2023/08/20 08:38:09;;;;;;;4.28;3.60;;;;;;;;;;10359804;28;20046;-84
2023/08/20 08:43:16;;;;;;;2.83;2.60;;;;;;;;;;10363254;28;20048;-84
2023/08/20 08:48:20;;;;;;;3.05;2.75;;;;;;;;;;10354985;28;20178;-84
2023/08/20 08:53:26;;;;;;;3.35;2.90;;;;;;;;;;10371305;28;20142;-83
2023/08/20 08:58:30;;;;;;;3.60;2.67;;;;;;;;;;10338689;28;20046;-84
2023/08/20 09:03:33;;;;;;;3.85;3.45;;;;;;;;;;10361892;28;20104;-83
2023/08/20 09:09:34;;;;;;;4.18;3.13;;;;;;;;;;10364565;28;20076;-84
2023/08/20 09:14:37;;;;;;;3.53;2.85;;;;;;;;;;10345799;28;20751;-83
2023/08/20 09:19:42;;;;;;;3.15;2.60;;;;;;;;;;10366861;28;20137;-83
2023/08/20 09:24:52;;;;;;;4.80;2.50;;;;;;;;;;10373595;28;20061;-84
2023/08/20 09:29:57;;;;;;;2.35;2.15;;;;;;;;;;10359465;28;20120;-84
2023/08/20 09:35:01;;;;;;;;;;;;;;;;;;10380113;28;20136;-84
2023/08/20 09:40:06;;;;;;;1.92;1.83;;;;;;;;;;10374067;28;19975;-84
2023/08/20 09:45:11;;;;;;;1.88;1.77;;;;;;;;;;10367302;28;20080;-84
2023/08/20 09:50:18;;;;;;;2.60;2.40;;;;;;;;;;10371669;28;20033;-84
2023/08/20 09:55:24;;;;;;;6.50;3.63;;;;;;;;;;10355449;28;20140;-83
2023/08/20 10:00:29;;;;;;;2.72;2.53;;;;;;;;;;10364521;28;20070;-84
2023/08/20 10:05:33;;;;;;;2.45;2.25;;;;;;;;;;10361610;28;20073;-84
2023/08/20 10:10:38;;;;;;;2.17;1.80;;;;;;;;;;10370420;28;20084;-84
2023/08/20 10:15:42;;;;;;;2.35;2.15;;;;;;;;;;10387940;28;20077;-84
2023/08/20 10:20:47;;;;;;;1.98;1.88;;;;;;;;;;10353785;28;20057;-84
2023/08/20 10:25:53;;;;;;;3.05;2.30;;;;;;;;;;10383930;28;20056;-84
2023/08/20 10:31:08;;;;;;;3.28;2.60;;;;;;;;;;10369591;28;20582;-84
2023/08/20 10:36:17;;;;;;;4.30;2.97;;;;;;;;;;10390168;28;20501;-84
2023/08/20 10:41:26;;;;;;;3.42;2.90;;;;;;;;;;10378952;28;20437;-84
2023/08/20 10:46:31;;;;;;;3.35;2.08;;;;;;;;;;10385748;28;20068;-84
2023/08/20 10:51:34;;;;;;;;;;;;;;;;;;10369533;28;20046;-83
2023/08/20 10:56:44;;;;;;;2.38;1.30;;;;;;;;;;10361681;28;19921;-84
2023/08/20 11:01:49;;;;;;;3.08;2.00;;;;;;;;;;10372561;28;20042;-84
2023/08/20 11:06:55;;;;;;;4.60;2.90;;;;;;;;;;10368263;28;20046;-84
2023/08/20 11:12:00;;;;;;;3.30;2.60;;;;;;;;;;10353248;28;20057;-84
2023/08/20 11:17:04;;;;;;;4.13;2.60;;;;;;;;;;10376989;28;20076;-84
2023/08/20 11:22:08;;;;;;;3.70;2.70;;;;;;;;;;10368311;28;20105;-84
2023/08/20 11:33:42;;;;;;;2.60;2.20;;;;;;;;;;10347559;28;19930;-83
2023/08/20 11:38:58;;;;;;;1.73;1.50;;;;;;;;;;10315992;28;20471;-85
2023/08/20 11:44:06;;;;;;;2.88;2.35;;;;;;;;;;10309533;28;20044;-85
2023/08/20 11:49:13;;;;;;;2.47;1.80;;;;;;;;;;10351638;28;20180;-86
2023/08/20 11:54:17;;;;;;;2.92;2.28;;;;;;;;;;10338449;28;20557;-86
2023/08/20 11:59:22;;;;;;;2.13;1.92;;;;;;;;;;10345134;28;20046;-86
2023/08/20 12:05:36;;;;;;;2.33;1.83;;;;;;;;;;10335382;28;20042;-87
2023/08/20 12:10:59;;;;;;;2.75;1.70;;;;;;;;;;10336847;28;20084;-85
2023/08/20 12:16:14;;;;;;;1.30;1.20;;;;;;;;;;10334494;28;20073;-85
2023/08/20 12:21:38;;;;;;;1.52;1.20;;;;;;;;;;10342082;28;20046;-84
2023/08/20 12:26:42;;;;;;;0.77;0.70;;;;;;;;;;10358433;28;20296;-85
2023/08/20 12:31:45;;;;;;;1.90;1.15;;;;;;;;;;10363118;28;20245;-85
2023/08/20 12:36:57;;;;;;;2.60;1.50;;;;;;;;;;10344988;28;20050;-84
2023/08/20 12:42:29;;;;;;;0.90;0.90;;;;;;;;;;10348003;28;20507;-86
2023/08/20 12:48:24;;;;;;;1.55;1.17;;;;;;;;;;10339970;28;20081;-85
2023/08/20 12:53:28;;;;;;;1.30;1.20;;;;;;;;;;10342658;28;20052;-85
2023/08/20 12:58:32;;;;;;;2.88;1.55;;;;;;;;;;10354258;28;20141;-85
2023/08/20 13:14:53;;;;;;;1.33;1.02;;;;;;;;;;11026656;23;20092;-85
2023/08/20 13:19:56;;;;;;;1.85;1.17;;;;;;;;;;10292213;28;20703;-88
2023/08/20 13:25:00;;;;;;;1.70;1.60;;;;;;;;;;10317551;28;20116;-85
2023/08/20 13:30:08;;;;;;;2.20;1.57;;;;;;;;;;10297149;28;20056;-88
2023/08/20 13:35:11;;;;;;;4.18;1.70;;;;;;;;;;10300796;28;20043;-85
2023/08/20 13:40:15;;;;;;;1.70;1.23;;;;;;;;;;10293444;28;20491;-86
2023/08/20 13:45:20;;;;;;;1.67;1.23;;;;;;;;;;10310244;28;20801;-87
2023/08/20 13:50:23;;;;;;;2.30;1.60;;;;;;;;;;10309129;28;20114;-86
2023/08/20 13:55:27;;;;;;;1.50;1.27;;;;;;;;;;10301309;28;20097;-88
2023/08/20 14:00:31;;;;;;;2.57;1.97;;;;;;;;;;10308695;28;20507;-87
2023/08/20 14:05:35;;;;;;;2.80;1.83;;;;;;;;;;10308818;28;20599;-88
2023/08/20 14:10:38;;;;;;;2.42;1.50;;;;;;;;;;10289596;28;20146;-85
2023/08/20 14:15:43;;;;;;;1.42;1.23;;;;;;;;;;10281745;28;20042;-87
2023/08/20 14:20:47;;;;;;;2.05;1.60;;;;;;;;;;10278661;28;20141;-86
2023/08/20 14:25:50;;;;;;;1.60;1.50;;;;;;;;;;10284032;28;20049;-84
2023/08/20 14:30:56;;;;;;;1.17;1.08;;;;;;;;;;10292306;28;20050;-85
2023/08/20 14:35:59;;;;;;;2.97;2.25;;;;;;;;;;10290984;28;20039;-87
2023/08/20 14:41:03;;;;;;;2.23;1.63;;;;;;;;;;10296991;28;20452;-85
2023/08/20 14:46:09;;;;;;;2.95;1.77;;;;;;;;;;10296838;28;20038;-87
2023/08/20 14:51:14;;;;;;;4.22;2.47;;;;;;;;;;10288301;28;20050;-87
2023/08/20 14:56:19;;;;;;;3.65;1.80;;;;;;;;;;10292714;28;20042;-86
2023/08/20 15:01:23;;;;;;;2.10;1.90;;;;;;;;;;10300414;28;20141;-85
2023/08/20 15:06:28;;;;;;;2.53;1.80;;;;;;;;;;10298023;28;20046;-84
2023/08/20 15:11:59;;;;;;;2.42;1.95;;;;;;;;;;10305814;28;20419;-88
2023/08/20 15:17:15;;;;;;;6.15;1.90;;;;;;;;;;10320744;28;20045;-85
2023/08/20 15:22:19;;;;;;;1.92;1.63;;;;;;;;;;10297452;28;20151;-86
2023/08/20 15:27:24;;;;;;;1.98;1.70;;;;;;;;;;10302425;28;20109;-87
2023/08/20 15:32:29;;;;;;;2.30;2.10;;;;;;;;;;10297975;28;20096;-87
2023/08/20 15:37:35;;;;;;;2.50;1.63;;;;;;;;;;10306589;28;20042;-85
2023/08/20 15:42:38;;;;;;;4.70;1.70;;;;;;;;;;10302317;28;20045;-84
2023/08/20 15:47:43;;;;;;;2.03;1.60;;;;;;;;;;10320457;28;20035;-87
2023/08/20 15:52:53;;;;;;;2.75;1.65;;;;;;;;;;10302254;28;20160;-84
2023/08/20 15:57:58;;;;;;;1.95;1.40;;;;;;;;;;10303281;28;20050;-85
2023/08/20 16:03:13;;;;;;;1.50;1.40;;;;;;;;;;10314685;28;20042;-85
2023/08/20 16:08:16;;;;;;;3.10;1.48;;;;;;;;;;10318965;28;20047;-85
2023/08/20 16:13:20;;;;;;;3.37;2.57;;;;;;;;;;10247555;28;1072134;-85
2023/08/20 16:18:25;;;;;;;2.88;1.90;;;;;;;;;;10297870;28;20074;-88
2023/08/20 16:23:28;;;;;;;2.05;1.35;;;;;;;;;;10304416;28;20042;-85
2023/08/20 16:28:32;;;;;;;1.52;1.35;;;;;;;;;;10305980;28;20539;-84
2023/08/20 16:33:37;;;;;;;1.90;1.17;;;;;;;;;;10305025;28;20058;-85
2023/08/20 16:38:40;;;;;;;;;;;;;;;;;;10305806;28;20073;-85
2023/08/20 16:43:45;;;;;;;2.00;1.60;;;;;;;;;;10311383;28;20360;-84
2023/08/20 16:48:50;;;;;;;;;;;;;;;;;;10305667;28;20142;-84
2023/08/20 16:53:53;;;;;;;1.58;1.30;;;;;;;;;;10319480;28;20005;-84
2023/08/20 16:58:56;;;;;;;1.30;1.20;;;;;;;;;;10289365;28;20050;-85
2023/08/20 17:04:01;;;;;;;1.23;1.08;;;;;;;;;;10297475;28;20069;-84
2023/08/20 17:09:05;;;;;;;;;;;;;;;;;;10315353;28;20495;-87
2023/08/20 17:14:08;;;;;;;1.15;0.85;;;;;;;;;;10308495;28;19921;-85
2023/08/20 17:19:13;;;;;;;1.23;1.13;;;;;;;;;;10321164;28;20038;-87
2023/08/20 17:24:16;;;;;;;;;;;;;;;;;;10311904;28;20092;-85
2023/08/20 17:29:20;;;;;;;2.03;0.93;;;;;;;;;;10303954;28;20020;-84
2023/08/20 17:34:26;;;;;;;2.00;1.23;;;;;;;;;;10303006;28;20046;-84
2023/08/20 17:39:29;;;;;;;1.33;1.23;;;;;;;;;;10304109;28;20050;-85
2023/08/20 17:44:33;;;;;;;1.23;1.05;;;;;;;;;;10322552;28;20093;-84
2023/08/20 17:49:37;;;;;;;1.80;1.30;;;;;;;;;;10304727;28;20713;-84
2023/08/20 17:54:41;;;;;;;3.05;1.17;;;;;;;;;;10304802;28;20097;-84
2023/08/20 17:59:45;;;;;;;2.97;1.40;;;;;;;;;;10304833;28;20050;-84
2023/08/20 18:04:51;;;;;;;2.15;1.30;;;;;;;;;;10321693;28;20762;-84
2023/08/20 18:09:55;;;;;;;1.42;1.20;;;;;;;;;;10314051;28;20047;-84
2023/08/20 18:14:59;;;;;;;1.55;1.45;;;;;;;;;;10295683;28;20449;-85
2023/08/20 18:20:12;;;;;;;1.42;1.33;;;;;;;;;;10291148;28;20069;-88
2023/08/20 18:25:15;;;;;;;1.98;1.45;;;;;;;;;;10316812;28;20658;-84
2023/08/20 18:30:19;;;;;;;1.50;1.40;;;;;;;;;;10301464;28;20077;-85
2023/08/20 18:35:24;;;;;;;2.20;1.67;;;;;;;;;;10295770;28;20130;-87
2023/08/20 18:40:27;;;;;;;;;;;;;;;;;;10296295;28;20078;-84
2023/08/20 18:45:31;;;;;;;1.70;1.42;;;;;;;;;;10324687;28;20012;-85
2023/08/20 18:50:36;;;;;;;1.40;1.30;;;;;;;;;;10309152;28;20042;-84
2023/08/20 18:55:40;;;;;;;2.92;1.40;;;;;;;;;;10300013;28;20070;-87
2023/08/20 19:00:47;;;;;;;2.60;1.60;;;;;;;;;;10308722;28;20133;-87
2023/08/20 19:05:54;;;;;;;3.92;1.63;;;;;;;;;;10283996;28;20043;-85
2023/08/20 19:11:00;;;;;;;3.25;1.90;;;;;;;;;;10301477;28;20046;-84
2023/08/20 19:16:04;;;;;;;2.22;1.80;;;;;;;;;;10314499;28;20038;-84
2023/08/20 19:21:12;;;;;;;4.55;1.65;;;;;;;;;;10299765;28;20137;-84
2023/08/20 19:26:15;;;;;;;5.30;2.17;;;;;;;;;;10323038;28;20062;-87
2023/08/20 19:31:21;;;;;;;2.72;1.65;;;;;;;;;;10307328;28;20137;-84
2023/08/20 19:36:26;;;;;;;3.50;1.70;;;;;;;;;;10296411;28;20042;-85
2023/08/20 19:41:30;;;;;;;4.13;1.73;;;;;;;;;;10306866;28;20100;-85
2023/08/20 19:46:34;;;;;;;3.25;1.77;;;;;;;;;;10317434;28;20134;-85
2023/08/20 19:51:39;;;;;;;2.60;1.60;;;;;;;;;;10300853;28;20113;-88
2023/08/20 19:56:42;;;;;;;2.78;1.50;;;;;;;;;;10316537;28;20062;-84
2023/08/20 20:01:49;;;;;;;2.40;1.60;;;;;;;;;;10310774;28;20046;-87
2023/08/20 20:06:55;;;;;;;2.08;1.58;;;;;;;;;;10290660;28;20039;-87
2023/08/20 20:12:01;;;;;;;3.72;1.80;;;;;;;;;;10295679;28;20042;-85
2023/08/20 20:17:07;;;;;;;1.98;1.77;;;;;;;;;;10299066;28;20072;-84
2023/08/20 20:22:12;;;;;;;2.33;1.63;;;;;;;;;;10302829;28;20129;-88
2023/08/20 20:27:16;;;;;;;2.75;1.73;;;;;;;;;;10306653;28;20093;-84
2023/08/20 20:32:20;;;;;;;3.47;1.95;;;;;;;;;;10292642;28;20038;-84
2023/08/20 20:37:24;;;;;;;5.47;2.15;;;;;;;;;;10303175;28;20374;-84
2023/08/20 20:42:28;;;;;;;2.53;1.73;;;;;;;;;;10307492;28;20139;-86
2023/08/20 20:47:31;;;;;;;2.33;1.55;;;;;;;;;;10302285;28;20340;-84
2023/08/20 20:52:36;;;;;;;2.70;1.80;;;;;;;;;;10299116;28;20050;-85
2023/08/20 20:57:40;;;;;;;5.32;1.73;;;;;;;;;;10303134;28;20077;-85
2023/08/20 21:02:43;;;;;;;2.47;1.83;;;;;;;;;;10299668;28;20500;-87
2023/08/20 21:07:48;;;;;;;3.08;1.95;;;;;;;;;;10305434;28;20046;-84
2023/08/20 21:12:52;;;;;;;3.87;2.03;;;;;;;;;;10300842;28;20133;-88
2023/08/20 21:17:55;;;;;;;2.22;1.92;;;;;;;;;;10320767;28;20616;-84
2023/08/20 21:23:00;;;;;;;4.93;2.28;;;;;;;;;;10307896;28;20042;-88
2023/08/20 21:28:03;;;;;;;2.00;1.60;;;;;;;;;;10298393;28;20102;-85
2023/08/20 21:33:07;;;;;;;3.63;1.92;;;;;;;;;;10305973;28;20105;-87
2023/08/20 21:38:12;;;;;;;3.72;2.03;;;;;;;;;;10312258;28;20035;-87
2023/08/20 21:43:15;;;;;;;1.93;1.77;;;;;;;;;;10294687;28;20047;-88
2023/08/20 21:48:19;;;;;;;6.03;2.08;;;;;;;;;;10317852;28;20101;-84
2023/08/20 21:53:24;;;;;;;6.22;2.08;;;;;;;;;;10301425;28;20050;-85
2023/08/20 21:58:27;;;;;;;3.30;1.80;;;;;;;;;;10313334;28;20038;-85
2023/08/20 22:03:32;;;;;;;5.70;1.90;;;;;;;;;;10302687;28;20487;-88
2023/08/20 22:08:37;;;;;;;4.43;1.80;;;;;;;;;;10302032;28;20068;-85
2023/08/20 22:13:40;;;;;;;2.37;1.83;;;;;;;;;;10322046;28;20070;-84
2023/08/20 22:18:44;;;;;;;3.85;2.05;;;;;;;;;;10297069;28;20066;-88
2023/08/20 22:23:49;;;;;;;3.60;1.90;;;;;;;;;;10301399;28;20753;-85
2023/08/20 22:28:52;;;;;;;2.50;1.67;;;;;;;;;;10333421;28;20046;-87
2023/08/20 22:33:56;;;;;;;2.20;2.00;;;;;;;;;;10309988;28;20133;-85
2023/08/20 22:39:01;;;;;;;2.70;1.52;;;;;;;;;;10318215;28;20069;-84
2023/08/20 22:44:05;;;;;;;2.75;2.00;;;;;;;;;;10315516;28;20078;-84
2023/08/20 22:49:08;;;;;;;2.92;1.85;;;;;;;;;;10311736;28;20063;-85
2023/08/20 22:54:14;;;;;;;4.20;2.10;;;;;;;;;;10311664;28;20733;-85
2023/08/20 22:59:17;;;;;;;4.72;1.83;;;;;;;;;;10309692;28;20043;-84
2023/08/20 23:04:21;;;;;;;4.35;1.67;;;;;;;;;;10315777;28;20092;-85
2023/08/20 23:09:26;;;;;;;2.47;1.92;;;;;;;;;;10311036;28;20627;-85
2023/08/20 23:14:29;;;;;;;4.03;2.13;;;;;;;;;;10299252;28;20513;-88
2023/08/20 23:19:32;;;;;;;2.10;1.90;;;;;;;;;;10310819;28;20057;-83
2023/08/20 23:24:37;;;;;;;2.15;1.90;;;;;;;;;;10310222;28;20042;-89
2023/08/20 23:29:41;;;;;;;5.13;2.17;;;;;;;;;;10318710;28;20080;-84
2023/08/20 23:34:44;;;;;;;1.90;1.80;;;;;;;;;;10306392;28;20504;-88
2023/08/20 23:39:49;;;;;;;3.50;1.98;;;;;;;;;;10322819;28;20573;-86
2023/08/20 23:44:52;;;;;;;2.70;2.13;;;;;;;;;;10319786;28;20146;-85
2023/08/20 23:49:56;;;;;;;2.53;1.85;;;;;;;;;;10317444;28;20129;-84
2023/08/20 23:55:00;;;;;;;3.25;2.20;;;;;;;;;;10297078;28;20240;-86
